Airfield :
LOGIN :

Register | Disclaimer

   EN    FR    IT 

 










Legend :    VFR   Marginal VFR   IFR   Intensive IFR   Very Intensive IFR
Visi :
Ceiling :
>= 8 km
>= 3000ft
5 to 8 km
1000 to 3000 ft
1500m to 5 km
500 to 1000 ft
800 to 1500m
200 to 500 ft
< 800m
< 200 ft
Symbols :   Thunderstorms  Fog  Heavy snow  Heavy precipitations  Wind > 20 kt
SIGMETs :     Misc.  Thunderstorms  Icing  Turbulence  Mountain Waves  Volcanic Ashes







- Airport Elevation : 240 ft
- IATA code : VLC


LEVC - Valencia Manises

CURRENT METAR :
  • 190400Z 29003KT 5000 BR FEW018 05/04 Q1021 NOSIG

EXPIRED METARs :
  • 190330Z 28004KT 5000 BR FEW018 05/04 Q1021 NOSIG
  • 190300Z 30004KT 5000 BR FEW018 06/05 Q1021 NOSIG
  • 190230Z 31003KT 5000 BR FEW018 06/05 Q1021 NOSIG
  • 190200Z 28003KT 5000 BR FEW018 06/05 Q1022 NOSIG
  • 190130Z 32003KT 300V360 6000 FEW018 07/06 Q1022 NOSIG

TAF TAF LEVC
Valid from the 19 at 00:00 until the 20 at 00:00 UTC


182300Z 1900/1924 VRB03KT 9999 FEW020 TX17/1913Z TN03/1907Z
PROB30
TEMPO 1900/1906 4000 BR BKN010
TEMPO 1912/1918 09010KT
No reported NOTAMs for that airfield.



MET'MAP, your aeronautical weather chart ! - Copyright ORBIFLY December 2007 - Disclaimer

ORBIFLY MET'MAP TEAM :

Programming & Development : Alexandra Zaïnal
Concept & Development : Baudouin d'Aumeries
Co-Development & Prog : Marc-Olivier Méhu
Technical & hardware support : Manuel Goepfert

Contact : metmap@orbifly.com




SOURCES & CREDITS :

   NOAA